sensor_id;sensor_type;location;lat;lon;timestamp;P1;durP1;ratioP1;P2;durP2;ratioP2
19127;SDS011;9696;53.686;10.094;2023-02-15T00:01:31;52.50;;;20.13;;
19127;SDS011;9696;53.686;10.094;2023-02-15T00:04:01;102.03;;;20.33;;
19127;SDS011;9696;53.686;10.094;2023-02-15T00:06:31;103.13;;;23.07;;
19127;SDS011;9696;53.686;10.094;2023-02-15T00:09:03;56.47;;;19.63;;
19127;SDS011;9696;53.686;10.094;2023-02-15T00:11:32;80.17;;;21.47;;
19127;SDS011;9696;53.686;10.094;2023-02-15T00:14:08;72.37;;;19.80;;
19127;SDS011;9696;53.686;10.094;2023-02-15T00:16:40;92.17;;;22.07;;
19127;SDS011;9696;53.686;10.094;2023-02-15T00:19:11;129.53;;;22.77;;
19127;SDS011;9696;53.686;10.094;2023-02-15T00:21:40;68.80;;;21.20;;
19127;SDS011;9696;53.686;10.094;2023-02-15T00:24:12;149.23;;;24.43;;
19127;SDS011;9696;53.686;10.094;2023-02-15T00:26:42;62.73;;;19.07;;
19127;SDS011;9696;53.686;10.094;2023-02-15T00:29:12;61.37;;;17.17;;
19127;SDS011;9696;53.686;10.094;2023-02-15T00:31:43;167.73;;;24.27;;
19127;SDS011;9696;53.686;10.094;2023-02-15T00:34:13;64.03;;;20.37;;
19127;SDS011;9696;53.686;10.094;2023-02-15T00:36:43;53.63;;;20.57;;
19127;SDS011;9696;53.686;10.094;2023-02-15T00:39:15;70.93;;;19.63;;
19127;SDS011;9696;53.686;10.094;2023-02-15T00:41:45;86.17;;;23.50;;
19127;SDS011;9696;53.686;10.094;2023-02-15T00:44:14;126.30;;;21.83;;
19127;SDS011;9696;53.686;10.094;2023-02-15T00:46:44;80.83;;;20.63;;
19127;SDS011;9696;53.686;10.094;2023-02-15T00:49:13;79.67;;;22.40;;
19127;SDS011;9696;53.686;10.094;2023-02-15T00:51:42;121.63;;;20.63;;
19127;SDS011;9696;53.686;10.094;2023-02-15T00:54:11;72.57;;;20.57;;
19127;SDS011;9696;53.686;10.094;2023-02-15T00:56:41;61.00;;;18.17;;
19127;SDS011;9696;53.686;10.094;2023-02-15T00:59:11;62.20;;;20.63;;
19127;SDS011;9696;53.686;10.094;2023-02-15T01:01:40;89.17;;;23.80;;
19127;SDS011;9696;53.686;10.094;2023-02-15T01:04:09;73.93;;;21.47;;
19127;SDS011;9696;53.686;10.094;2023-02-15T01:06:38;139.37;;;26.43;;
19127;SDS011;9696;53.686;10.094;2023-02-15T01:09:09;92.70;;;20.30;;
19127;SDS011;9696;53.686;10.094;2023-02-15T01:11:41;66.07;;;22.60;;
19127;SDS011;9696;53.686;10.094;2023-02-15T01:14:10;104.33;;;23.03;;
19127;SDS011;9696;53.686;10.094;2023-02-15T01:16:41;47.17;;;18.83;;
19127;SDS011;9696;53.686;10.094;2023-02-15T01:19:10;101.20;;;21.20;;
19127;SDS011;9696;53.686;10.094;2023-02-15T01:21:39;89.40;;;21.23;;
19127;SDS011;9696;53.686;10.094;2023-02-15T01:24:11;63.10;;;20.10;;
19127;SDS011;9696;53.686;10.094;2023-02-15T01:26:42;119.50;;;24.27;;
19127;SDS011;9696;53.686;10.094;2023-02-15T01:29:11;73.00;;;19.67;;
19127;SDS011;9696;53.686;10.094;2023-02-15T01:31:40;128.07;;;22.73;;
19127;SDS011;9696;53.686;10.094;2023-02-15T01:34:10;121.43;;;23.57;;
19127;SDS011;9696;53.686;10.094;2023-02-15T01:36:39;79.80;;;21.50;;
19127;SDS011;9696;53.686;10.094;2023-02-15T01:39:08;68.90;;;19.97;;
19127;SDS011;9696;53.686;10.094;2023-02-15T01:41:37;81.23;;;20.40;;
19127;SDS011;9696;53.686;10.094;2023-02-15T01:47:16;119.73;;;22.37;;
19127;SDS011;9696;53.686;10.094;2023-02-15T01:49:49;115.43;;;21.90;;
19127;SDS011;9696;53.686;10.094;2023-02-15T01:52:26;98.77;;;22.73;;
19127;SDS011;9696;53.686;10.094;2023-02-15T01:54:56;86.53;;;21.17;;
19127;SDS011;9696;53.686;10.094;2023-02-15T01:57:26;62.90;;;19.57;;
19127;SDS011;9696;53.686;10.094;2023-02-15T01:59:58;60.23;;;20.67;;
19127;SDS011;9696;53.686;10.094;2023-02-15T02:02:38;54.90;;;19.20;;
19127;SDS011;9696;53.686;10.094;2023-02-15T02:05:08;67.97;;;19.13;;
19127;SDS011;9696;53.686;10.094;2023-02-15T02:07:44;104.57;;;21.17;;
19127;SDS011;9696;53.686;10.094;2023-02-15T02:10:43;130.53;;;21.03;;
19127;SDS011;9696;53.686;10.094;2023-02-15T02:13:30;77.50;;;19.53;;
19127;SDS011;9696;53.686;10.094;2023-02-15T02:16:19;79.83;;;21.40;;
19127;SDS011;9696;53.686;10.094;2023-02-15T02:18:57;70.53;;;18.00;;
19127;SDS011;9696;53.686;10.094;2023-02-15T02:22:07;118.00;;;21.27;;
19127;SDS011;9696;53.686;10.094;2023-02-15T02:25:10;61.83;;;19.30;;
19127;SDS011;9696;53.686;10.094;2023-02-15T02:28:06;44.47;;;18.13;;
19127;SDS011;9696;53.686;10.094;2023-02-15T02:30:55;88.53;;;18.17;;
19127;SDS011;9696;53.686;10.094;2023-02-15T02:37:08;69.90;;;19.10;;
19127;SDS011;9696;53.686;10.094;2023-02-15T02:39:48;99.13;;;20.63;;
19127;SDS011;9696;53.686;10.094;2023-02-15T02:42:25;140.53;;;21.47;;
19127;SDS011;9696;53.686;10.094;2023-02-15T02:44:59;121.87;;;19.90;;
19127;SDS011;9696;53.686;10.094;2023-02-15T02:47:36;159.17;;;22.10;;
19127;SDS011;9696;53.686;10.094;2023-02-15T02:50:13;162.60;;;23.57;;
19127;SDS011;9696;53.686;10.094;2023-02-15T02:52:47;42.97;;;18.80;;
19127;SDS011;9696;53.686;10.094;2023-02-15T02:55:19;119.20;;;21.17;;
19127;SDS011;9696;53.686;10.094;2023-02-15T02:57:54;149.50;;;22.07;;
19127;SDS011;9696;53.686;10.094;2023-02-15T03:00:29;103.47;;;21.47;;
19127;SDS011;9696;53.686;10.094;2023-02-15T03:03:01;92.20;;;20.63;;
19127;SDS011;9696;53.686;10.094;2023-02-15T03:05:34;135.03;;;21.13;;
19127;SDS011;9696;53.686;10.094;2023-02-15T03:08:09;243.47;;;26.80;;
19127;SDS011;9696;53.686;10.094;2023-02-15T03:10:48;144.20;;;21.13;;
19127;SDS011;9696;53.686;10.094;2023-02-15T03:13:23;57.03;;;17.70;;
19127;SDS011;9696;53.686;10.094;2023-02-15T03:15:53;84.80;;;19.77;;
19127;SDS011;9696;53.686;10.094;2023-02-15T03:18:41;47.43;;;18.27;;
19127;SDS011;9696;53.686;10.094;2023-02-15T03:21:20;73.93;;;16.47;;
19127;SDS011;9696;53.686;10.094;2023-02-15T03:23:56;199.40;;;24.00;;
19127;SDS011;9696;53.686;10.094;2023-02-15T03:26:28;116.83;;;18.70;;
19127;SDS011;9696;53.686;10.094;2023-02-15T03:29:00;110.03;;;18.47;;
19127;SDS011;9696;53.686;10.094;2023-02-15T03:31:35;85.67;;;18.40;;
19127;SDS011;9696;53.686;10.094;2023-02-15T03:34:11;119.97;;;20.73;;
19127;SDS011;9696;53.686;10.094;2023-02-15T03:36:44;109.90;;;20.17;;
19127;SDS011;9696;53.686;10.094;2023-02-15T03:39:18;132.33;;;22.93;;
19127;SDS011;9696;53.686;10.094;2023-02-15T03:41:55;88.87;;;20.67;;
19127;SDS011;9696;53.686;10.094;2023-02-15T03:44:30;74.73;;;20.90;;
19127;SDS011;9696;53.686;10.094;2023-02-15T03:47:04;105.77;;;17.87;;
19127;SDS011;9696;53.686;10.094;2023-02-15T03:49:41;141.33;;;17.47;;
19127;SDS011;9696;53.686;10.094;2023-02-15T03:52:13;94.83;;;17.80;;
19127;SDS011;9696;53.686;10.094;2023-02-15T03:54:45;177.43;;;20.83;;
19127;SDS011;9696;53.686;10.094;2023-02-15T03:57:16;106.07;;;19.10;;
19127;SDS011;9696;53.686;10.094;2023-02-15T04:00:09;174.23;;;21.27;;
19127;SDS011;9696;53.686;10.094;2023-02-15T04:03:07;140.13;;;21.27;;
19127;SDS011;9696;53.686;10.094;2023-02-15T04:05:46;139.90;;;20.57;;
19127;SDS011;9696;53.686;10.094;2023-02-15T04:08:16;62.60;;;18.20;;
19127;SDS011;9696;53.686;10.094;2023-02-15T04:10:46;90.50;;;18.00;;
19127;SDS011;9696;53.686;10.094;2023-02-15T04:13:24;76.13;;;14.80;;
19127;SDS011;9696;53.686;10.094;2023-02-15T04:15:59;84.70;;;17.77;;
19127;SDS011;9696;53.686;10.094;2023-02-15T04:18:32;73.67;;;17.17;;
19127;SDS011;9696;53.686;10.094;2023-02-15T04:21:21;97.43;;;19.63;;
19127;SDS011;9696;53.686;10.094;2023-02-15T04:24:08;140.13;;;19.80;;
19127;SDS011;9696;53.686;10.094;2023-02-15T04:26:57;85.97;;;19.07;;
19127;SDS011;9696;53.686;10.094;2023-02-15T04:29:27;64.70;;;18.17;;
19127;SDS011;9696;53.686;10.094;2023-02-15T04:31:58;62.00;;;16.87;;
19127;SDS011;9696;53.686;10.094;2023-02-15T04:34:28;78.37;;;16.60;;
19127;SDS011;9696;53.686;10.094;2023-02-15T04:36:58;86.10;;;16.60;;
19127;SDS011;9696;53.686;10.094;2023-02-15T04:39:27;72.07;;;17.73;;
19127;SDS011;9696;53.686;10.094;2023-02-15T04:41:57;82.43;;;17.97;;
19127;SDS011;9696;53.686;10.094;2023-02-15T04:44:26;45.47;;;18.03;;
19127;SDS011;9696;53.686;10.094;2023-02-15T04:46:55;51.77;;;18.07;;
19127;SDS011;9696;53.686;10.094;2023-02-15T04:49:24;91.50;;;19.80;;
19127;SDS011;9696;53.686;10.094;2023-02-15T04:51:54;101.47;;;20.90;;
19127;SDS011;9696;53.686;10.094;2023-02-15T04:54:23;105.23;;;20.60;;
19127;SDS011;9696;53.686;10.094;2023-02-15T04:56:52;65.90;;;18.80;;
19127;SDS011;9696;53.686;10.094;2023-02-15T04:59:22;133.23;;;17.93;;
19127;SDS011;9696;53.686;10.094;2023-02-15T05:01:51;61.07;;;17.80;;
19127;SDS011;9696;53.686;10.094;2023-02-15T05:04:20;90.43;;;19.07;;
19127;SDS011;9696;53.686;10.094;2023-02-15T05:06:50;56.17;;;17.67;;
19127;SDS011;9696;53.686;10.094;2023-02-15T05:09:19;112.00;;;18.37;;
19127;SDS011;9696;53.686;10.094;2023-02-15T05:11:48;68.93;;;17.57;;
19127;SDS011;9696;53.686;10.094;2023-02-15T05:14:17;74.57;;;17.93;;
19127;SDS011;9696;53.686;10.094;2023-02-15T05:16:47;71.67;;;20.17;;
19127;SDS011;9696;53.686;10.094;2023-02-15T05:19:17;113.20;;;18.67;;
19127;SDS011;9696;53.686;10.094;2023-02-15T05:21:46;61.83;;;17.50;;
19127;SDS011;9696;53.686;10.094;2023-02-15T05:24:15;58.13;;;18.53;;
19127;SDS011;9696;53.686;10.094;2023-02-15T05:27:11;93.00;;;19.87;;
19127;SDS011;9696;53.686;10.094;2023-02-15T05:29:58;110.07;;;19.50;;
19127;SDS011;9696;53.686;10.094;2023-02-15T05:32:29;112.83;;;18.10;;
19127;SDS011;9696;53.686;10.094;2023-02-15T05:34:58;48.73;;;15.93;;
19127;SDS011;9696;53.686;10.094;2023-02-15T05:37:28;104.20;;;16.83;;
19127;SDS011;9696;53.686;10.094;2023-02-15T05:39:57;118.23;;;19.40;;
19127;SDS011;9696;53.686;10.094;2023-02-15T05:42:26;76.40;;;15.33;;
19127;SDS011;9696;53.686;10.094;2023-02-15T05:44:55;88.90;;;16.87;;
19127;SDS011;9696;53.686;10.094;2023-02-15T05:47:24;142.53;;;20.73;;
19127;SDS011;9696;53.686;10.094;2023-02-15T05:49:55;75.73;;;16.50;;
19127;SDS011;9696;53.686;10.094;2023-02-15T05:52:24;182.80;;;20.80;;
19127;SDS011;9696;53.686;10.094;2023-02-15T05:54:53;139.13;;;19.57;;
19127;SDS011;9696;53.686;10.094;2023-02-15T05:57:22;60.43;;;15.20;;
19127;SDS011;9696;53.686;10.094;2023-02-15T05:59:51;114.70;;;18.70;;
19127;SDS011;9696;53.686;10.094;2023-02-15T06:02:20;119.83;;;18.20;;
19127;SDS011;9696;53.686;10.094;2023-02-15T06:04:50;83.57;;;18.27;;
19127;SDS011;9696;53.686;10.094;2023-02-15T06:07:20;167.73;;;18.27;;
19127;SDS011;9696;53.686;10.094;2023-02-15T06:09:49;80.30;;;16.30;;
19127;SDS011;9696;53.686;10.094;2023-02-15T06:12:19;139.47;;;18.03;;
19127;SDS011;9696;53.686;10.094;2023-02-15T06:14:48;117.77;;;18.47;;
19127;SDS011;9696;53.686;10.094;2023-02-15T06:17:17;95.30;;;16.40;;
19127;SDS011;9696;53.686;10.094;2023-02-15T06:19:46;67.03;;;15.40;;
19127;SDS011;9696;53.686;10.094;2023-02-15T06:22:15;36.77;;;14.83;;
19127;SDS011;9696;53.686;10.094;2023-02-15T06:24:46;45.50;;;15.33;;
19127;SDS011;9696;53.686;10.094;2023-02-15T06:27:15;54.67;;;15.03;;
19127;SDS011;9696;53.686;10.094;2023-02-15T06:29:44;126.33;;;16.13;;
19127;SDS011;9696;53.686;10.094;2023-02-15T06:32:13;72.50;;;15.20;;
19127;SDS011;9696;53.686;10.094;2023-02-15T06:34:43;137.17;;;15.23;;
19127;SDS011;9696;53.686;10.094;2023-02-15T06:37:14;110.80;;;16.37;;
19127;SDS011;9696;53.686;10.094;2023-02-15T06:39:43;197.07;;;21.00;;
19127;SDS011;9696;53.686;10.094;2023-02-15T06:42:14;90.67;;;16.03;;
19127;SDS011;9696;53.686;10.094;2023-02-15T06:44:44;84.73;;;15.93;;
19127;SDS011;9696;53.686;10.094;2023-02-15T06:47:14;92.53;;;15.67;;
19127;SDS011;9696;53.686;10.094;2023-02-15T06:49:43;64.67;;;15.23;;
19127;SDS011;9696;53.686;10.094;2023-02-15T06:52:12;110.57;;;17.07;;
19127;SDS011;9696;53.686;10.094;2023-02-15T06:54:41;55.73;;;15.37;;
19127;SDS011;9696;53.686;10.094;2023-02-15T06:57:12;108.83;;;17.53;;
19127;SDS011;9696;53.686;10.094;2023-02-15T06:59:41;110.57;;;17.43;;
19127;SDS011;9696;53.686;10.094;2023-02-15T07:02:10;85.37;;;15.37;;
19127;SDS011;9696;53.686;10.094;2023-02-15T07:04:40;83.47;;;16.27;;
19127;SDS011;9696;53.686;10.094;2023-02-15T07:07:10;97.30;;;15.77;;
19127;SDS011;9696;53.686;10.094;2023-02-15T07:09:39;66.17;;;14.90;;
19127;SDS011;9696;53.686;10.094;2023-02-15T07:12:08;103.07;;;16.97;;
19127;SDS011;9696;53.686;10.094;2023-02-15T07:15:02;71.50;;;14.47;;
19127;SDS011;9696;53.686;10.094;2023-02-15T07:17:33;175.10;;;18.83;;
19127;SDS011;9696;53.686;10.094;2023-02-15T07:20:04;54.67;;;14.27;;
19127;SDS011;9696;53.686;10.094;2023-02-15T07:22:36;108.60;;;16.87;;
19127;SDS011;9696;53.686;10.094;2023-02-15T07:25:07;135.57;;;16.77;;
19127;SDS011;9696;53.686;10.094;2023-02-15T07:27:37;95.40;;;13.80;;
19127;SDS011;9696;53.686;10.094;2023-02-15T07:30:09;89.23;;;16.33;;
19127;SDS011;9696;53.686;10.094;2023-02-15T07:32:40;105.97;;;15.47;;
19127;SDS011;9696;53.686;10.094;2023-02-15T07:35:25;80.27;;;15.43;;
19127;SDS011;9696;53.686;10.094;2023-02-15T07:37:54;77.03;;;14.07;;
19127;SDS011;9696;53.686;10.094;2023-02-15T07:40:23;65.03;;;13.80;;
19127;SDS011;9696;53.686;10.094;2023-02-15T07:42:52;99.83;;;14.70;;
19127;SDS011;9696;53.686;10.094;2023-02-15T07:45:27;90.47;;;15.77;;
19127;SDS011;9696;53.686;10.094;2023-02-15T07:47:56;107.00;;;17.13;;
19127;SDS011;9696;53.686;10.094;2023-02-15T07:50:25;87.07;;;14.77;;
19127;SDS011;9696;53.686;10.094;2023-02-15T07:52:54;104.37;;;15.93;;
19127;SDS011;9696;53.686;10.094;2023-02-15T07:55:23;57.33;;;12.93;;
19127;SDS011;9696;53.686;10.094;2023-02-15T07:57:53;85.03;;;16.47;;
19127;SDS011;9696;53.686;10.094;2023-02-15T08:00:22;107.57;;;15.27;;
19127;SDS011;9696;53.686;10.094;2023-02-15T08:02:54;164.17;;;16.13;;
19127;SDS011;9696;53.686;10.094;2023-02-15T08:05:42;130.83;;;15.67;;
19127;SDS011;9696;53.686;10.094;2023-02-15T08:08:12;58.03;;;14.40;;
19127;SDS011;9696;53.686;10.094;2023-02-15T08:11:00;100.87;;;14.67;;
19127;SDS011;9696;53.686;10.094;2023-02-15T08:13:49;113.10;;;14.57;;
19127;SDS011;9696;53.686;10.094;2023-02-15T08:16:23;133.87;;;15.70;;
19127;SDS011;9696;53.686;10.094;2023-02-15T08:18:56;49.67;;;12.00;;
19127;SDS011;9696;53.686;10.094;2023-02-15T08:21:26;119.20;;;17.03;;
19127;SDS011;9696;53.686;10.094;2023-02-15T08:23:56;61.67;;;14.53;;
19127;SDS011;9696;53.686;10.094;2023-02-15T08:26:26;135.43;;;16.03;;
19127;SDS011;9696;53.686;10.094;2023-02-15T08:28:56;130.00;;;15.30;;
19127;SDS011;9696;53.686;10.094;2023-02-15T08:31:26;89.53;;;14.03;;
19127;SDS011;9696;53.686;10.094;2023-02-15T08:33:58;72.43;;;13.70;;
19127;SDS011;9696;53.686;10.094;2023-02-15T08:36:28;46.03;;;13.00;;
19127;SDS011;9696;53.686;10.094;2023-02-15T08:38:59;118.40;;;16.43;;
19127;SDS011;9696;53.686;10.094;2023-02-15T08:41:30;120.87;;;15.97;;
19127;SDS011;9696;53.686;10.094;2023-02-15T08:44:01;60.40;;;13.67;;
19127;SDS011;9696;53.686;10.094;2023-02-15T08:46:32;80.67;;;14.80;;
19127;SDS011;9696;53.686;10.094;2023-02-15T08:49:04;103.17;;;16.13;;
19127;SDS011;9696;53.686;10.094;2023-02-15T08:51:34;113.90;;;16.13;;
19127;SDS011;9696;53.686;10.094;2023-02-15T08:54:06;67.03;;;13.73;;
19127;SDS011;9696;53.686;10.094;2023-02-15T08:56:38;283.87;;;21.60;;
19127;SDS011;9696;53.686;10.094;2023-02-15T08:59:12;151.03;;;16.07;;
19127;SDS011;9696;53.686;10.094;2023-02-15T09:01:43;58.47;;;12.43;;
19127;SDS011;9696;53.686;10.094;2023-02-15T09:04:14;52.13;;;13.27;;
19127;SDS011;9696;53.686;10.094;2023-02-15T09:06:44;66.10;;;14.50;;
19127;SDS011;9696;53.686;10.094;2023-02-15T09:09:15;65.57;;;11.60;;
19127;SDS011;9696;53.686;10.094;2023-02-15T09:11:45;25.17;;;11.50;;
19127;SDS011;9696;53.686;10.094;2023-02-15T09:14:23;39.97;;;12.73;;
19127;SDS011;9696;53.686;10.094;2023-02-15T09:16:53;60.20;;;13.27;;
19127;SDS011;9696;53.686;10.094;2023-02-15T09:19:24;59.03;;;12.60;;
19127;SDS011;9696;53.686;10.094;2023-02-15T09:21:53;61.20;;;12.33;;
19127;SDS011;9696;53.686;10.094;2023-02-15T09:24:22;44.80;;;12.07;;
19127;SDS011;9696;53.686;10.094;2023-02-15T09:26:51;33.33;;;12.07;;
19127;SDS011;9696;53.686;10.094;2023-02-15T09:29:21;48.53;;;13.33;;
19127;SDS011;9696;53.686;10.094;2023-02-15T09:31:50;40.90;;;12.60;;
19127;SDS011;9696;53.686;10.094;2023-02-15T09:34:21;100.67;;;14.07;;
19127;SDS011;9696;53.686;10.094;2023-02-15T09:36:52;84.20;;;14.53;;
19127;SDS011;9696;53.686;10.094;2023-02-15T09:39:21;66.73;;;12.73;;
19127;SDS011;9696;53.686;10.094;2023-02-15T09:42:00;87.87;;;13.50;;
19127;SDS011;9696;53.686;10.094;2023-02-15T09:45:13;53.17;;;12.73;;
19127;SDS011;9696;53.686;10.094;2023-02-15T09:48:07;28.97;;;12.80;;
19127;SDS011;9696;53.686;10.094;2023-02-15T09:51:00;34.03;;;12.73;;
19127;SDS011;9696;53.686;10.094;2023-02-15T09:53:47;27.30;;;13.23;;
19127;SDS011;9696;53.686;10.094;2023-02-15T09:56:30;32.00;;;12.63;;
19127;SDS011;9696;53.686;10.094;2023-02-15T09:59:08;57.10;;;13.73;;
19127;SDS011;9696;53.686;10.094;2023-02-15T10:01:49;61.20;;;13.30;;
19127;SDS011;9696;53.686;10.094;2023-02-15T10:04:33;42.93;;;12.73;;
19127;SDS011;9696;53.686;10.094;2023-02-15T10:07:22;46.00;;;14.63;;
19127;SDS011;9696;53.686;10.094;2023-02-15T10:10:07;35.33;;;11.27;;
19127;SDS011;9696;53.686;10.094;2023-02-15T10:12:52;49.67;;;13.80;;
19127;SDS011;9696;53.686;10.094;2023-02-15T10:15:39;44.23;;;13.27;;
19127;SDS011;9696;53.686;10.094;2023-02-15T10:18:23;43.43;;;15.37;;
19127;SDS011;9696;53.686;10.094;2023-02-15T10:21:04;91.53;;;16.13;;
19127;SDS011;9696;53.686;10.094;2023-02-15T10:23:46;35.60;;;14.20;;
19127;SDS011;9696;53.686;10.094;2023-02-15T10:26:34;121.90;;;18.90;;
19127;SDS011;9696;53.686;10.094;2023-02-15T10:29:12;34.57;;;13.43;;
19127;SDS011;9696;53.686;10.094;2023-02-15T10:31:57;26.60;;;12.07;;
19127;SDS011;9696;53.686;10.094;2023-02-15T10:34:35;73.87;;;14.03;;
19127;SDS011;9696;53.686;10.094;2023-02-15T10:37:16;95.47;;;17.43;;
19127;SDS011;9696;53.686;10.094;2023-02-15T10:40:06;105.77;;;18.20;;
19127;SDS011;9696;53.686;10.094;2023-02-15T10:42:49;90.57;;;15.37;;
19127;SDS011;9696;53.686;10.094;2023-02-15T10:45:36;36.73;;;16.00;;
19127;SDS011;9696;53.686;10.094;2023-02-15T10:48:21;46.93;;;17.83;;
19127;SDS011;9696;53.686;10.094;2023-02-15T10:51:04;52.67;;;15.43;;
19127;SDS011;9696;53.686;10.094;2023-02-15T10:53:45;96.57;;;14.50;;
19127;SDS011;9696;53.686;10.094;2023-02-15T10:56:30;56.50;;;13.93;;
19127;SDS011;9696;53.686;10.094;2023-02-15T10:59:18;84.57;;;16.57;;
19127;SDS011;9696;53.686;10.094;2023-02-15T11:01:59;57.87;;;17.13;;
19127;SDS011;9696;53.686;10.094;2023-02-15T11:04:53;53.87;;;18.80;;
19127;SDS011;9696;53.686;10.094;2023-02-15T11:07:31;46.33;;;16.43;;
19127;SDS011;9696;53.686;10.094;2023-02-15T11:10:11;45.67;;;15.53;;
19127;SDS011;9696;53.686;10.094;2023-02-15T11:12:50;54.77;;;16.80;;
19127;SDS011;9696;53.686;10.094;2023-02-15T11:15:24;49.77;;;17.83;;
19127;SDS011;9696;53.686;10.094;2023-02-15T11:18:00;99.70;;;18.97;;
19127;SDS011;9696;53.686;10.094;2023-02-15T11:20:35;47.03;;;16.30;;
19127;SDS011;9696;53.686;10.094;2023-02-15T11:23:12;46.13;;;16.83;;
19127;SDS011;9696;53.686;10.094;2023-02-15T11:25:45;49.30;;;15.77;;
19127;SDS011;9696;53.686;10.094;2023-02-15T11:28:22;43.83;;;17.83;;
19127;SDS011;9696;53.686;10.094;2023-02-15T11:31:00;51.40;;;17.33;;
19127;SDS011;9696;53.686;10.094;2023-02-15T11:33:40;88.20;;;22.83;;
19127;SDS011;9696;53.686;10.094;2023-02-15T11:36:16;36.80;;;16.83;;
19127;SDS011;9696;53.686;10.094;2023-02-15T11:38:48;48.60;;;19.63;;
19127;SDS011;9696;53.686;10.094;2023-02-15T11:41:24;49.33;;;20.67;;
19127;SDS011;9696;53.686;10.094;2023-02-15T11:43:57;40.07;;;18.17;;
19127;SDS011;9696;53.686;10.094;2023-02-15T11:46:34;51.60;;;21.13;;
19127;SDS011;9696;53.686;10.094;2023-02-15T11:49:08;45.07;;;18.33;;
19127;SDS011;9696;53.686;10.094;2023-02-15T11:51:46;44.27;;;18.70;;
19127;SDS011;9696;53.686;10.094;2023-02-15T11:54:17;35.63;;;17.27;;
19127;SDS011;9696;53.686;10.094;2023-02-15T11:56:49;48.93;;;19.43;;
19127;SDS011;9696;53.686;10.094;2023-02-15T11:59:21;48.93;;;21.27;;
19127;SDS011;9696;53.686;10.094;2023-02-15T12:01:58;56.40;;;22.40;;
19127;SDS011;9696;53.686;10.094;2023-02-15T12:04:29;54.07;;;20.73;;
19127;SDS011;9696;53.686;10.094;2023-02-15T12:07:03;50.07;;;20.60;;
19127;SDS011;9696;53.686;10.094;2023-02-15T12:09:45;42.87;;;18.60;;
19127;SDS011;9696;53.686;10.094;2023-02-15T12:12:22;54.67;;;22.27;;
19127;SDS011;9696;53.686;10.094;2023-02-15T12:14:53;64.13;;;23.83;;
19127;SDS011;9696;53.686;10.094;2023-02-15T12:17:25;50.80;;;21.73;;
19127;SDS011;9696;53.686;10.094;2023-02-15T12:19:56;49.73;;;21.13;;
19127;SDS011;9696;53.686;10.094;2023-02-15T12:22:29;49.37;;;21.90;;
19127;SDS011;9696;53.686;10.094;2023-02-15T12:25:00;51.33;;;22.63;;
19127;SDS011;9696;53.686;10.094;2023-02-15T12:27:39;47.70;;;20.63;;
19127;SDS011;9696;53.686;10.094;2023-02-15T12:30:15;53.53;;;23.00;;
19127;SDS011;9696;53.686;10.094;2023-02-15T12:32:50;53.70;;;22.93;;
19127;SDS011;9696;53.686;10.094;2023-02-15T12:35:24;55.67;;;23.47;;
19127;SDS011;9696;53.686;10.094;2023-02-15T12:37:57;59.20;;;24.03;;
19127;SDS011;9696;53.686;10.094;2023-02-15T12:40:31;61.60;;;24.63;;
19127;SDS011;9696;53.686;10.094;2023-02-15T12:43:02;55.63;;;23.37;;
19127;SDS011;9696;53.686;10.094;2023-02-15T12:45:35;61.00;;;24.10;;
19127;SDS011;9696;53.686;10.094;2023-02-15T12:48:13;55.90;;;22.43;;
19127;SDS011;9696;53.686;10.094;2023-02-15T12:50:44;48.70;;;23.50;;
19127;SDS011;9696;53.686;10.094;2023-02-15T12:53:21;53.60;;;22.83;;
19127;SDS011;9696;53.686;10.094;2023-02-15T12:55:58;57.10;;;22.50;;
19127;SDS011;9696;53.686;10.094;2023-02-15T12:58:29;51.03;;;22.40;;
19127;SDS011;9696;53.686;10.094;2023-02-15T13:01:09;58.00;;;23.27;;
19127;SDS011;9696;53.686;10.094;2023-02-15T13:03:53;50.80;;;22.77;;
19127;SDS011;9696;53.686;10.094;2023-02-15T13:06:25;56.50;;;23.93;;
19127;SDS011;9696;53.686;10.094;2023-02-15T13:08:56;47.73;;;22.73;;
19127;SDS011;9696;53.686;10.094;2023-02-15T13:11:32;53.07;;;24.23;;
19127;SDS011;9696;53.686;10.094;2023-02-15T13:14:13;54.07;;;23.00;;
19127;SDS011;9696;53.686;10.094;2023-02-15T13:16:45;46.03;;;22.10;;
19127;SDS011;9696;53.686;10.094;2023-02-15T13:19:20;50.77;;;23.03;;
19127;SDS011;9696;53.686;10.094;2023-02-15T13:21:57;54.53;;;23.67;;
19127;SDS011;9696;53.686;10.094;2023-02-15T13:24:30;49.40;;;24.20;;
19127;SDS011;9696;53.686;10.094;2023-02-15T13:27:04;52.70;;;24.80;;
19127;SDS011;9696;53.686;10.094;2023-02-15T13:29:42;54.37;;;24.83;;
19127;SDS011;9696;53.686;10.094;2023-02-15T13:32:17;57.47;;;24.13;;
19127;SDS011;9696;53.686;10.094;2023-02-15T13:34:56;50.60;;;23.70;;
19127;SDS011;9696;53.686;10.094;2023-02-15T13:37:41;54.67;;;26.30;;
19127;SDS011;9696;53.686;10.094;2023-02-15T13:40:28;53.43;;;25.50;;
19127;SDS011;9696;53.686;10.094;2023-02-15T13:43:02;47.17;;;24.37;;
19127;SDS011;9696;53.686;10.094;2023-02-15T13:45:47;50.60;;;24.50;;
19127;SDS011;9696;53.686;10.094;2023-02-15T13:48:32;48.73;;;23.77;;
19127;SDS011;9696;53.686;10.094;2023-02-15T13:51:21;50.83;;;24.70;;
19127;SDS011;9696;53.686;10.094;2023-02-15T13:54:10;49.45;;;25.00;;
19127;SDS011;9696;53.686;10.094;2023-02-15T13:56:59;47.23;;;23.30;;
19127;SDS011;9696;53.686;10.094;2023-02-15T13:59:46;46.23;;;24.30;;
19127;SDS011;9696;53.686;10.094;2023-02-15T14:05:42;57.90;;;23.63;;
19127;SDS011;9696;53.686;10.094;2023-02-15T14:08:28;51.30;;;22.90;;
19127;SDS011;9696;53.686;10.094;2023-02-15T14:11:12;47.73;;;23.43;;
19127;SDS011;9696;53.686;10.094;2023-02-15T14:14:03;46.35;;;22.73;;
19127;SDS011;9696;53.686;10.094;2023-02-15T14:16:51;51.08;;;23.55;;
19127;SDS011;9696;53.686;10.094;2023-02-15T14:19:35;46.47;;;22.37;;
19127;SDS011;9696;53.686;10.094;2023-02-15T14:22:15;43.27;;;21.20;;
19127;SDS011;9696;53.686;10.094;2023-02-15T14:24:58;42.03;;;19.75;;
19127;SDS011;9696;53.686;10.094;2023-02-15T14:27:39;45.00;;;20.13;;
19127;SDS011;9696;53.686;10.094;2023-02-15T14:30:15;43.20;;;20.08;;
19127;SDS011;9696;53.686;10.094;2023-02-15T14:32:49;40.38;;;20.05;;
19127;SDS011;9696;53.686;10.094;2023-02-15T14:35:21;38.33;;;20.08;;
19127;SDS011;9696;53.686;10.094;2023-02-15T14:37:53;39.88;;;20.40;;
19127;SDS011;9696;53.686;10.094;2023-02-15T14:40:30;41.50;;;19.85;;
19127;SDS011;9696;53.686;10.094;2023-02-15T14:43:26;44.73;;;19.63;;
19127;SDS011;9696;53.686;10.094;2023-02-15T14:46:01;39.47;;;20.50;;
19127;SDS011;9696;53.686;10.094;2023-02-15T14:48:37;35.75;;;19.23;;
19127;SDS011;9696;53.686;10.094;2023-02-15T14:51:10;42.47;;;20.30;;
19127;SDS011;9696;53.686;10.094;2023-02-15T14:54:01;41.30;;;19.83;;
19127;SDS011;9696;53.686;10.094;2023-02-15T14:56:32;44.97;;;20.90;;
19127;SDS011;9696;53.686;10.094;2023-02-15T14:59:17;41.07;;;20.80;;
19127;SDS011;9696;53.686;10.094;2023-02-15T15:01:52;43.33;;;20.73;;
19127;SDS011;9696;53.686;10.094;2023-02-15T15:04:26;39.47;;;20.53;;
19127;SDS011;9696;53.686;10.094;2023-02-15T15:07:04;38.40;;;19.20;;
19127;SDS011;9696;53.686;10.094;2023-02-15T15:09:42;47.13;;;21.83;;
19127;SDS011;9696;53.686;10.094;2023-02-15T15:12:35;42.13;;;21.17;;
19127;SDS011;9696;53.686;10.094;2023-02-15T15:15:06;44.20;;;20.53;;